Time;durP1;ratioP1;P1;durP2;ratioP2;P2;SDS_P1;SDS_P2;PMS_P1;PMS_P2;Temp;Humidity;BMP_temperature;BMP_pressure;BME280_temperature;BME280_humidity;BME280_pressure;Samples;Min_cycle;Max_cycle;Signal;HPM_P1;HPM_P2
2021/11/25 00:03:03;;;;;;;18.93;10.87;;;;;;;6.03;100.00;100816.97;5141542;57;1143565;-76
2021/11/25 00:08:09;;;;;;;16.07;10.10;;;;;;;5.99;100.00;100805.31;5141528;57;1141134;-82
2021/11/25 00:13:15;;;;;;;8.53;5.30;;;;;;;5.93;100.00;100806.98;5141577;57;1143229;-77
2021/11/25 00:18:21;;;;;;;8.50;6.47;;;;;;;5.89;100.00;100802.81;5141667;57;1139157;-78
2021/11/25 00:23:26;;;;;;;11.17;6.17;;;;;;;5.84;100.00;100808.73;5203322;56;1139079;-79
2021/11/25 00:28:32;;;;;;;12.00;8.13;;;;;;;5.83;100.00;100810.97;5228581;56;1141172;-80
2021/11/25 00:33:39;;;;;;;18.30;9.28;;;;;;;5.88;100.00;100801.12;5227413;56;1141479;-86
2021/11/25 00:38:46;;;;;;;15.63;9.17;;;;;;;5.91;100.00;100801.42;5163861;56;1141327;-79
2021/11/25 00:43:52;;;;;;;15.73;7.90;;;;;;;5.89;100.00;100795.41;5163954;56;1141097;-74
2021/11/25 00:48:58;;;;;;;19.50;10.20;;;;;;;5.88;100.00;100794.55;5163910;56;1139349;-78
2021/11/25 00:54:04;;;;;;;21.30;10.10;;;;;;;5.86;100.00;100792.44;5163976;56;1141248;-73
2021/11/25 00:59:11;;;;;;;16.73;9.07;;;;;;;5.87;100.00;100785.41;5150882;57;1139257;-80
2021/11/25 01:04:16;;;;;;;10.93;7.47;;;;;;;5.85;100.00;100776.77;5163699;56;1139545;-79
2021/11/25 01:09:22;;;;;;;10.53;6.80;;;;;;;5.84;100.00;100771.14;5163808;56;1139225;-77
2021/11/25 01:14:30;;;;;;;8.63;6.43;;;;;;;5.79;100.00;100770.56;5152995;56;1139488;-79
2021/11/25 01:19:37;;;;;;;10.60;7.13;;;;;;;5.76;100.00;100765.00;5152354;56;1136991;-77
2021/11/25 01:24:43;;;;;;;10.00;7.00;;;;;;;5.73;100.00;100760.38;5121290;57;1139300;-81
2021/11/25 01:29:48;;;;;;;11.43;7.03;;;;;;;5.69;100.00;100746.56;5120680;57;1136973;-76
2021/11/25 01:34:55;;;;;;;9.33;5.03;;;;;;;5.71;100.00;100745.17;5120588;57;1139087;-80
2021/11/25 01:40:01;;;;;;;7.90;5.80;;;;;;;5.66;100.00;100738.85;5120475;57;1136980;-82
2021/11/25 01:45:08;;;;;;;8.47;5.40;;;;;;;5.62;100.00;100730.79;5120517;57;1134948;-80
2021/11/25 01:50:16;;;;;;;6.10;4.97;;;;;;;5.58;100.00;100714.82;5120396;57;1137363;-80
2021/11/25 01:55:23;;;;;;;9.93;6.60;;;;;;;5.58;100.00;100701.23;5120672;57;1137161;-77
2021/11/25 02:00:51;;;;;;;13.17;7.53;;;;;;;5.58;100.00;100688.13;5120574;57;1134868;-76
2021/11/25 02:05:58;;;;;;;9.10;6.50;;;;;;;5.65;100.00;100687.34;5121632;57;1139192;-81
2021/11/25 02:11:06;;;;;;;9.07;6.83;;;;;;;5.65;100.00;100679.47;5121577;57;1136911;-76
2021/11/25 02:16:12;;;;;;;14.77;8.70;;;;;;;5.64;100.00;100667.28;5121925;57;1139098;-82
2021/11/25 02:21:18;;;;;;;12.93;8.93;;;;;;;5.68;100.00;100667.93;5130647;56;1141638;-73
2021/11/25 02:26:24;;;;;;;15.10;9.57;;;;;;;5.65;100.00;100661.09;5153989;56;1139019;-80
2021/11/25 02:31:31;;;;;;;14.73;10.37;;;;;;;5.59;100.00;100651.77;5163733;56;1139024;-83
2021/11/25 02:36:37;;;;;;;14.20;9.57;;;;;;;5.56;100.00;100637.97;5164141;56;1141149;-78
2021/11/25 02:41:42;;;;;;;15.43;9.90;;;;;;;5.54;100.00;100645.92;5193904;56;1139078;-73
2021/11/25 02:46:54;;;;;;;18.57;12.60;;;;;;;5.52;99.97;100629.87;5210583;56;1141125;-80
2021/11/25 02:52:01;;;;;;;15.88;11.12;;;;;;;5.50;100.00;100625.21;5195088;56;1139086;-78
2021/11/25 02:57:07;;;;;;;15.53;11.03;;;;;;;5.47;100.00;100620.97;5164376;56;1141716;-80
2021/11/25 03:02:13;;;;;;;15.10;10.77;;;;;;;5.46;100.00;100610.09;5164108;56;1143192;-78
2021/11/25 03:07:19;;;;;;;20.00;12.80;;;;;;;5.48;99.92;100592.97;5164192;56;1143288;-80
2021/11/25 03:12:24;;;;;;;18.23;12.80;;;;;;;5.48;100.00;100587.26;5164239;56;1139106;-77
2021/11/25 03:17:30;;;;;;;22.83;12.60;;;;;;;5.47;100.00;100588.19;5163991;56;1141097;-78
2021/11/25 03:22:36;;;;;;;16.87;11.93;;;;;;;5.44;100.00;100571.77;5146426;57;1141310;-78
2021/11/25 03:27:42;;;;;;;17.30;10.77;;;;;;;5.38;99.88;100561.14;5131671;57;1141429;-74
2021/11/25 03:32:47;;;;;;;16.63;10.93;;;;;;;5.36;99.49;100550.34;5131641;57;1139564;-82
2021/11/25 03:37:53;;;;;;;18.42;12.45;;;;;;;5.33;99.34;100540.90;5131588;57;1141133;-79
2021/11/25 03:42:59;;;;;;;20.23;12.57;;;;;;;5.30;99.29;100533.20;5131834;57;1139052;-78
2021/11/25 03:48:05;;;;;;;24.47;14.80;;;;;;;5.25;99.49;100524.73;5131696;57;1139163;-82
2021/11/25 03:53:10;;;;;;;22.25;14.78;;;;;;;5.18;99.31;100519.00;5132918;57;1139014;-79
2021/11/25 03:58:19;;;;;;;18.67;12.63;;;;;;;5.09;98.88;100509.46;5136915;57;1139435;-82
2021/11/25 04:03:26;;;;;;;21.47;14.13;;;;;;;5.05;98.41;100504.00;5138339;57;1139349;-79
2021/11/25 04:08:32;;;;;;;20.00;14.73;;;;;;;5.03;98.34;100502.80;5140271;57;1141284;-77
2021/11/25 04:13:38;;;;;;;22.33;15.63;;;;;;;5.01;98.39;100494.17;5137844;57;1138992;-75
2021/11/25 04:18:44;;;;;;;25.93;17.13;;;;;;;4.97;98.44;100475.61;5138330;57;1139081;-80
2021/11/25 04:23:50;;;;;;;27.27;15.73;;;;;;;4.89;97.70;100469.92;5208946;56;1139008;-78
2021/11/25 04:28:56;;;;;;;21.43;15.10;;;;;;;4.79;97.65;100468.28;5227557;56;1139570;-79
2021/11/25 04:39:26;;;;;;;24.30;15.83;;;;;;;4.74;97.67;100458.97;5225891;56;1139470;-80
2021/11/25 04:44:34;;;;;;;25.30;17.53;;;;;;;4.68;97.63;100453.63;5228815;56;1139559;-77
2021/11/25 04:49:39;;;;;;;23.77;17.35;;;;;;;4.60;97.78;100447.47;5228836;56;1139447;-82
2021/11/25 04:54:45;;;;;;;37.60;20.83;;;;;;;4.51;97.48;100428.34;5230180;56;1138975;-78
2021/11/25 04:59:51;;;;;;;34.23;21.90;;;;;;;4.49;97.56;100424.95;5230578;56;1137132;-87
2021/11/25 05:04:56;;;;;;;81.15;45.28;;;;;;;4.42;97.23;100413.59;5230505;56;1137311;-77
2021/11/25 05:10:02;;;;;;;125.60;53.63;;;;;;;4.37;97.42;100413.84;5230444;56;1136848;-84
2021/11/25 05:15:12;;;;;;;61.53;27.93;;;;;;;4.29;97.63;100409.92;5229652;56;1139187;-81
2021/11/25 05:20:18;;;;;;;29.93;18.23;;;;;;;4.14;97.36;100399.34;5188761;56;1137089;-83
2021/11/25 05:25:24;;;;;;;33.67;18.90;;;;;;;4.04;96.44;100397.30;5230466;56;1137003;-83
2021/11/25 05:30:33;;;;;;;39.13;21.77;;;;;;;3.97;96.91;100393.33;5223715;56;1136933;-77
2021/11/25 05:35:39;;;;;;;28.73;16.65;;;;;;;3.91;97.20;100391.02;5220026;56;1137111;-81
2021/11/25 05:40:46;;;;;;;28.03;17.30;;;;;;;3.82;96.46;100389.71;5219812;56;1137262;-86
2021/11/25 05:45:54;;;;;;;23.37;14.53;;;;;;;3.67;95.71;100382.20;5220383;56;1136833;-78
2021/11/25 05:50:59;;;;;;;28.23;16.20;;;;;;;3.58;96.29;100366.14;5220037;56;1136991;-81
2021/11/25 05:56:04;;;;;;;30.60;18.43;;;;;;;3.43;96.07;100353.39;5219831;56;1137054;-77
2021/11/25 06:01:11;;;;;;;30.27;17.53;;;;;;;3.32;96.58;100346.09;5219881;56;1137307;-79
2021/11/25 06:06:17;;;;;;;24.33;15.23;;;;;;;3.26;96.94;100347.70;5219617;56;1137076;-82
2021/11/25 06:11:23;;;;;;;30.60;18.70;;;;;;;3.24;96.89;100340.39;5220318;56;1137295;-73
2021/11/25 06:16:30;;;;;;;29.53;18.67;;;;;;;3.17;96.67;100332.04;5220861;56;1137246;-82
2021/11/25 06:21:36;;;;;;;35.37;20.03;;;;;;;3.13;96.97;100325.72;5190801;56;1134955;-80
2021/11/25 06:26:44;;;;;;;29.67;18.30;;;;;;;3.06;97.12;100329.55;5131147;56;1135056;-84
2021/11/25 06:31:49;;;;;;;31.10;17.77;;;;;;;3.05;97.31;100331.34;5124982;56;1139051;-84
2021/11/25 06:36:55;;;;;;;35.57;20.70;;;;;;;3.02;96.93;100327.58;5130329;56;1138907;-78
2021/11/25 06:42:01;;;;;;;35.30;21.87;;;;;;;2.99;97.15;100322.95;5126069;57;1139477;-86
2021/11/25 06:47:06;;;;;;;44.43;30.73;;;;;;;2.94;97.10;100328.86;5122516;57;1139089;-78
2021/11/25 06:52:12;;;;;;;35.17;19.87;;;;;;;2.86;97.19;100331.86;5122783;57;1139069;-85
2021/11/25 06:57:18;;;;;;;31.30;19.67;;;;;;;2.82;97.42;100320.70;5122251;57;1139177;-82
2021/11/25 07:02:24;;;;;;;39.18;22.65;;;;;;;2.87;97.45;100321.80;5122224;57;1139180;-80
2021/11/25 07:07:29;;;;;;;34.70;19.47;;;;;;;2.88;97.38;100311.73;5122459;57;1139270;-85
2021/11/25 07:12:36;;;;;;;41.10;24.93;;;;;;;2.83;97.51;100314.57;5131259;57;1138935;-76
2021/11/25 07:17:44;;;;;;;32.80;21.37;;;;;;;2.83;97.72;100316.34;5131156;57;1139264;-84
2021/11/25 07:22:50;;;;;;;33.33;22.03;;;;;;;2.92;98.32;100321.55;5144175;56;1139032;-79
2021/11/25 07:27:56;;;;;;;34.33;20.17;;;;;;;3.04;98.79;100310.06;5153438;56;1139022;-81
2021/11/25 07:33:02;;;;;;;41.33;21.63;;;;;;;3.18;98.87;100303.68;5153538;56;1138977;-77
2021/11/25 07:38:07;;;;;;;34.33;21.60;;;;;;;3.31;98.77;100292.13;5153287;56;1139085;-81
2021/11/25 07:43:13;;;;;;;60.67;36.57;;;;;;;3.42;98.71;100276.73;5184241;56;1139013;-82
2021/11/25 07:48:19;;;;;;;34.27;21.67;;;;;;;3.57;98.89;100272.47;5230319;56;1138975;-79
2021/11/25 07:53:25;;;;;;;29.00;19.87;;;;;;;3.71;98.43;100273.05;5230408;56;1139094;-77
2021/11/25 07:58:31;;;;;;;31.57;19.00;;;;;;;3.87;98.38;100266.91;5230433;56;1139051;-89
2021/11/25 08:03:36;;;;;;;37.27;21.30;;;;;;;3.96;97.81;100259.05;5195465;56;1139028;-87
2021/11/25 08:08:43;;;;;;;48.57;31.10;;;;;;;3.86;96.61;100244.29;5168357;56;1138985;-83
2021/11/25 08:13:49;;;;;;;49.10;26.03;;;;;;;4.08;98.20;100247.05;5144337;57;1139266;-85
2021/11/25 08:18:55;;;;;;;65.00;34.87;;;;;;;4.24;97.57;100240.89;5144047;57;1139084;-83
2021/11/25 08:24:01;;;;;;;48.87;25.33;;;;;;;4.29;95.83;100220.97;5215365;56;1138954;-80
2021/11/25 08:29:07;;;;;;;72.00;34.33;;;;;;;4.29;93.30;100218.36;5220321;56;1139046;-85
2021/11/25 08:34:12;;;;;;;78.77;38.50;;;;;;;4.23;94.78;100205.17;5218954;56;1138950;-80
2021/11/25 08:39:18;;;;;;;35.92;22.52;;;;;;;4.21;94.72;100203.56;5218723;56;1139006;-80
2021/11/25 08:44:24;;;;;;;29.40;17.37;;;;;;;4.02;94.20;100202.43;5218868;56;1139066;-80
2021/11/25 08:49:29;;;;;;;26.52;16.55;;;;;;;4.02;94.20;100202.43;5175512;56;1139062;-81
2021/11/25 08:54:35;;;;;;;33.35;19.62;;;;;;;3.87;93.13;100197.59;5218974;56;1139400;-81
2021/11/25 08:59:42;;;;;;;32.60;19.53;;;;;;;3.67;93.03;100185.20;5219013;56;1139117;-80
2021/11/25 09:04:48;;;;;;;40.63;20.33;;;;;;;3.64;93.38;100182.32;5218823;56;1139103;-81
2021/11/25 09:09:54;;;;;;;36.50;19.93;;;;;;;3.82;94.69;100175.22;5212679;56;1139338;-81
2021/11/25 09:14:59;;;;;;;33.45;21.07;;;;;;;3.85;93.48;100174.59;5185889;56;1139172;-80
2021/11/25 09:20:06;;;;;;;22.23;12.27;;;;;;;3.68;91.20;100165.98;5209695;56;1139190;-81
2021/11/25 09:25:12;;;;;;;39.42;21.05;;;;;;;3.58;91.40;100157.80;5132507;57;1139081;-81
2021/11/25 09:30:18;;;;;;;34.70;17.33;;;;;;;3.50;92.95;100144.32;5179789;56;1139045;-79
2021/11/25 09:35:23;;;;;;;31.97;17.23;;;;;;;3.52;91.83;100141.13;5219313;56;1139325;-78
2021/11/25 09:40:29;;;;;;;42.83;21.20;;;;;;;3.49;91.73;100135.63;5219612;56;1138944;-78
2021/11/25 09:45:37;;;;;;;32.70;19.87;;;;;;;3.46;92.50;100127.95;5220006;56;1139038;-79
2021/11/25 09:50:46;;;;;;;35.38;20.02;;;;;;;3.56;93.04;100120.90;5219989;56;1139090;-79
2021/11/25 09:55:54;;;;;;;35.80;19.27;;;;;;;3.56;91.82;100111.28;5218461;56;1137012;-78
2021/11/25 10:01:05;;;;;;;32.23;18.60;;;;;;;3.56;92.26;100099.98;5222694;56;1137433;-78
2021/11/25 10:06:10;;;;;;;32.63;18.77;;;;;;;3.50;91.23;100090.27;5228054;56;1136974;-78
2021/11/25 10:11:23;;;;;;;26.73;15.43;;;;;;;3.46;92.04;100081.36;5228000;56;1136930;-78
2021/11/25 10:16:36;;;;;;;36.68;20.40;;;;;;;3.51;91.71;100080.65;5228011;56;1136985;-81
2021/11/25 10:21:53;;;;;;;35.63;20.60;;;;;;;3.54;91.73;100063.45;5228081;56;1136912;-80
2021/11/25 10:26:54;;;;;;;35.03;20.30;;;;;;;3.59;91.31;100054.06;5227829;56;1136931;-81
2021/11/25 10:31:59;;;;;;;42.13;22.20;;;;;;;3.55;91.17;100050.77;5228052;56;1137043;-80
2021/11/25 10:37:36;;;;;;;33.50;17.47;;;;;;;3.61;92.17;100043.90;5150988;56;1136970;-79
2021/11/25 10:42:19;;;;;;;44.30;24.07;;;;;;;3.72;91.75;100048.52;5135273;57;1136924;-80
2021/11/25 10:47:28;;;;;;;36.97;21.20;;;;;;;3.77;92.67;100022.48;5148844;56;1136998;-81
2021/11/25 10:52:37;;;;;;;47.63;23.80;;;;;;;3.85;90.91;100016.79;5217572;56;1135014;-81
2021/11/25 10:57:46;;;;;;;39.30;19.47;;;;;;;3.89;92.31;100015.23;5217331;56;1139130;-81
2021/11/25 11:03:10;;;;;;;38.50;22.60;;;;;;;4.02;92.01;100009.27;5217761;56;1139072;-82
2021/11/25 11:08:19;;;;;;;39.17;19.97;;;;;;;4.04;91.60;100021.34;5217355;56;1139069;-82
2021/11/25 11:18:43;;;;;;;38.20;20.83;;;;;;;4.06;90.74;99993.78;5217513;56;1137035;-81
2021/11/25 11:23:50;;;;;;;31.67;15.87;;;;;;;3.87;91.47;99983.55;5150249;56;1136975;-83
2021/11/25 11:28:55;;;;;;;26.87;15.77;;;;;;;3.79;91.53;99981.86;5131908;57;1137083;-82
2021/11/25 11:34:05;;;;;;;47.60;27.40;;;;;;;3.69;92.40;99968.45;5132223;56;1136947;-83
2021/11/25 11:39:14;;;;;;;41.83;24.27;;;;;;;3.67;92.71;99980.77;5131748;57;1137033;-83
2021/11/25 11:44:23;;;;;;;64.20;33.37;;;;;;;3.60;93.29;99974.23;4996335;58;1136890;-81
2021/11/25 11:49:30;;;;;;;64.80;46.47;;;;;;;3.56;93.65;99975.33;4963898;58;1136925;-84
2021/11/25 11:54:52;;;;;;;50.43;25.50;;;;;;;3.47;93.56;99966.72;5215299;56;1137033;-81
2021/11/25 12:00:03;;;;;;;38.87;19.70;;;;;;;3.37;94.02;99949.39;5214997;56;1136939;-81
2021/11/25 12:05:11;;;;;;;33.20;18.53;;;;;;;3.35;93.75;99959.58;5215097;56;1136977;-84
2021/11/25 12:10:16;;;;;;;49.87;21.90;;;;;;;3.31;94.09;99943.69;5215098;56;1136946;-84
2021/11/25 12:15:23;;;;;;;40.47;22.57;;;;;;;3.33;94.31;99944.45;5215059;56;1136939;-85
2021/11/25 12:20:34;;;;;;;34.73;19.47;;;;;;;3.36;94.25;99938.55;5207636;56;1136888;-82
2021/11/25 12:25:45;;;;;;;37.10;20.90;;;;;;;3.40;94.22;99925.70;5151711;56;1136936;-83
2021/11/25 12:30:53;;;;;;;75.70;28.47;;;;;;;3.35;93.25;99912.06;5151156;56;1136937;-84
2021/11/25 12:35:54;;;;;;;40.53;19.87;;;;;;;3.37;93.37;99915.41;5151560;56;1136950;-83
2021/11/25 12:41:02;;;;;;;40.70;19.97;;;;;;;3.37;93.30;99910.18;5151706;56;1136943;-83
2021/11/25 12:46:16;;;;;;;226.52;90.05;;;;;;;3.44;93.79;99915.45;5156419;56;1137189;-83
2021/11/25 12:51:25;;;;;;;105.60;41.97;;;;;;;3.44;92.75;99901.53;5216591;56;1138967;-83
2021/11/25 12:56:34;;;;;;;77.30;34.37;;;;;;;3.45;91.89;99896.22;5217074;56;1136969;-83
2021/11/25 13:01:50;;;;;;;68.10;34.20;;;;;;;3.41;91.52;99882.10;5208589;56;1134900;-83
2021/11/25 13:07:03;;;;;;;37.40;21.90;;;;;;;3.41;91.52;99882.10;5206499;56;1135019;-82
2021/11/25 13:12:10;;;;;;;41.83;23.53;;;;;;;3.44;91.83;99870.17;5206412;56;1134914;-82
2021/11/25 13:17:15;;;;;;;76.90;33.40;;;;;;;3.43;91.61;99865.41;5205712;56;1134891;-82
2021/11/25 13:22:21;;;;;;;33.60;18.33;;;;;;;3.47;91.91;99862.15;5164212;56;1134875;-82
2021/11/25 13:27:27;;;;;;;49.80;25.00;;;;;;;3.46;91.37;99863.08;5121632;57;1134915;-82
2021/11/25 13:32:36;;;;;;;28.23;17.77;;;;;;;3.43;90.81;99855.41;5121884;57;1134871;-82
2021/11/25 13:37:50;;;;;;;39.83;23.40;;;;;;;3.40;91.23;99852.97;5121117;57;1134817;-81
2021/11/25 13:43:08;;;;;;;38.42;20.60;;;;;;;3.38;91.43;99854.36;5121309;57;1134788;-83
2021/11/25 13:48:18;;;;;;;43.70;26.43;;;;;;;3.36;89.89;99854.91;5170644;56;21190;-81
2021/11/25 13:53:28;;;;;;;29.47;17.30;;;;;;;3.32;90.42;99852.59;5065516;58;1132448;-82
2021/11/25 13:58:31;;;;;;;26.73;15.17;;;;;;;3.32;90.25;99852.12;5133248;56;1137036;-84
2021/11/25 14:03:37;;;;;;;31.60;18.90;;;;;;;3.25;88.71;99847.33;5237643;56;1137321;-83
2021/11/25 14:08:43;;;;;;;45.10;25.50;;;;;;;3.20;89.11;99839.78;5236971;56;1136913;-80
2021/11/25 14:13:50;;;;;;;26.07;15.18;;;;;;;3.23;89.95;99838.73;5236973;56;1137029;-84
2021/11/25 14:18:56;;;;;;;31.67;20.73;;;;;;;3.16;88.80;99826.05;5236955;56;1136928;-83
2021/11/25 14:24:15;;;;;;;92.53;35.70;;;;;;;3.16;89.37;99831.27;5165054;56;1136904;-82
2021/11/25 14:34:45;;;;;;;47.10;28.47;;;;;;;3.11;89.23;99813.70;5151092;57;1137143;-83
2021/11/25 14:39:52;;;;;;;36.27;22.23;;;;;;;3.14;90.31;99823.14;5103911;57;1136997;-83
2021/11/25 14:45:18;;;;;;;40.13;21.80;;;;;;;3.13;89.51;99822.77;4986336;57;1136962;-83
2021/11/25 14:50:31;;;;;;;67.32;35.75;;;;;;;3.09;89.88;99819.95;5040911;57;1137265;-82
2021/11/25 14:55:58;;;;;;;65.52;31.25;;;;;;;3.08;90.56;99804.73;5052984;58;1136853;-83
2021/11/25 15:01:09;;;;;;;53.40;29.07;;;;;;;3.08;90.24;99805.20;5056534;57;1136935;-80
2021/11/25 15:06:15;;;;;;;35.20;18.80;;;;;;;3.06;90.38;99809.20;5056425;58;1137101;-80
2021/11/25 15:11:20;;;;;;;29.67;18.30;;;;;;;3.02;90.02;99806.88;5056527;57;1136980;-81
2021/11/25 15:16:26;;;;;;;106.67;45.10;;;;;;;2.99;89.71;99810.97;5056391;57;1137049;-81
2021/11/25 15:21:33;;;;;;;48.93;26.57;;;;;;;2.93;90.26;99817.84;5039818;57;1138979;-83
2021/11/25 15:26:40;;;;;;;36.10;18.23;;;;;;;2.96;90.73;99828.12;5098351;57;1136974;-83
2021/11/25 15:31:46;;;;;;;33.53;18.83;;;;;;;2.94;90.25;99812.53;5054867;57;1136919;-82
2021/11/25 15:36:51;;;;;;;23.50;14.60;;;;;;;2.91;90.06;99814.01;5056517;58;1137129;-83
2021/11/25 15:41:58;;;;;;;27.17;13.43;;;;;;;2.89;89.91;99808.52;5116344;57;1135243;-83
2021/11/25 15:47:05;;;;;;;26.20;16.13;;;;;;;2.85;89.33;99798.70;5046157;57;1134934;-82
2021/11/25 15:52:10;;;;;;;28.47;14.40;;;;;;;2.83;89.35;99801.41;4975867;58;1134996;-83
2021/11/25 15:57:17;;;;;;;33.28;22.32;;;;;;;2.79;89.03;99809.03;4988132;58;1134828;-83
2021/11/25 16:02:23;;;;;;;32.67;19.50;;;;;;;2.82;89.82;99810.63;5124220;57;1135251;-82
2021/11/25 16:07:29;;;;;;;28.65;16.65;;;;;;;2.81;90.02;99818.92;5055117;57;1135178;-82
2021/11/25 16:12:38;;;;;;;34.70;22.00;;;;;;;2.85;89.65;99807.00;5056187;57;1134913;-84
2021/11/25 16:17:44;;;;;;;56.57;25.33;;;;;;;2.82;89.88;99804.10;5138546;57;1135111;-82
2021/11/25 16:22:50;;;;;;;30.27;16.07;;;;;;;2.83;90.04;99808.39;5184394;56;1134869;-83
2021/11/25 16:27:55;;;;;;;56.47;28.00;;;;;;;2.80;89.58;99791.12;5149402;57;1134858;-83
2021/11/25 16:33:01;;;;;;;61.98;26.97;;;;;;;2.80;89.72;99770.23;5148415;57;1135220;-83
2021/11/25 16:38:10;;;;;;;51.33;27.50;;;;;;;2.83;89.77;99748.34;5148499;57;1134837;-82
2021/11/25 16:43:15;;;;;;;32.17;19.67;;;;;;;2.85;90.10;99734.73;5148359;57;1134954;-81
2021/11/25 16:48:22;;;;;;;50.30;26.40;;;;;;;2.85;90.41;99741.26;5181745;56;1134948;-80
2021/11/25 16:53:34;;;;;;;49.30;26.13;;;;;;;2.87;90.55;99739.87;5195015;56;1134993;-79
2021/11/25 16:58:41;;;;;;;60.17;32.53;;;;;;;2.84;90.80;99735.66;5196454;56;1135004;-80
2021/11/25 17:03:47;;;;;;;36.30;21.33;;;;;;;2.82;90.51;99732.30;5228582;56;1132744;-81
2021/11/25 17:08:53;;;;;;;51.60;27.30;;;;;;;2.80;90.75;99732.38;5196255;56;1133212;-80
2021/11/25 17:13:59;;;;;;;46.63;26.30;;;;;;;2.80;90.81;99728.92;5176986;56;1137259;-80
2021/11/25 17:19:05;;;;;;;48.23;23.32;;;;;;;2.77;90.84;99748.68;5052623;58;1137092;-82
2021/11/25 17:24:10;;;;;;;39.67;21.23;;;;;;;2.78;91.07;99751.67;5175924;57;1136927;-81
2021/11/25 17:29:16;;;;;;;33.73;18.95;;;;;;;2.72;90.84;99752.88;5196136;56;1137043;-83
2021/11/25 17:34:22;;;;;;;46.80;27.20;;;;;;;2.72;90.79;99748.97;5196010;57;1136903;-81
2021/11/25 17:39:27;;;;;;;58.63;26.97;;;;;;;2.73;91.31;99741.98;5195799;56;1136916;-81
2021/11/25 17:44:33;;;;;;;63.53;28.30;;;;;;;2.70;91.15;99732.55;5195997;56;1136914;-84
2021/11/25 17:49:39;;;;;;;51.83;26.27;;;;;;;2.71;91.39;99730.78;5195232;57;1137142;-84
2021/11/25 17:54:45;;;;;;;66.80;29.60;;;;;;;2.69;91.66;99727.41;5188700;56;1137097;-84
2021/11/25 17:59:51;;;;;;;42.83;22.43;;;;;;;2.70;91.58;99726.02;5139608;56;1136965;-73
2021/11/25 18:04:56;;;;;;;37.63;16.03;;;;;;;2.70;91.76;99735.62;5139826;57;1137097;-74
2021/11/25 18:10:01;;;;;;;41.13;21.77;;;;;;;2.70;91.61;99727.79;5139819;56;1137285;-79
2021/11/25 18:15:08;;;;;;;40.37;23.10;;;;;;;2.69;91.59;99724.80;5139910;56;1136939;-78
2021/11/25 18:20:14;;;;;;;43.63;24.20;;;;;;;2.66;91.64;99717.14;5134799;56;1137122;-79
2021/11/25 18:25:21;;;;;;;54.37;26.27;;;;;;;2.67;91.98;99713.60;5078559;57;1136932;-76
2021/11/25 18:30:27;;;;;;;64.17;29.37;;;;;;;2.64;91.92;99700.25;5115194;57;1136958;-80
2021/11/25 18:35:34;;;;;;;64.13;31.30;;;;;;;2.68;92.15;99691.78;5120933;57;1136951;-78
2021/11/25 18:40:39;;;;;;;49.77;27.02;;;;;;;2.63;92.13;99681.60;5139792;57;1137278;-87
2021/11/25 18:45:45;;;;;;;60.07;29.83;;;;;;;2.65;92.33;99684.97;5109850;57;1137045;-83
2021/11/25 18:50:51;;;;;;;69.47;34.33;;;;;;;2.63;92.36;99675.08;5208971;55;1136969;-85
2021/11/25 18:55:57;;;;;;;52.67;23.77;;;;;;;2.63;92.47;99673.77;5277443;55;1136954;-85
2021/11/25 19:01:03;;;;;;;41.40;23.67;;;;;;;2.60;92.59;99666.11;5263704;55;1136930;-80
2021/11/25 19:06:08;;;;;;;50.13;26.87;;;;;;;2.62;92.58;99669.95;5289716;55;1136966;-81
2021/11/25 19:11:15;;;;;;;50.90;25.57;;;;;;;2.60;92.61;99660.09;5233059;56;1137387;-78
2021/11/25 19:16:21;;;;;;;65.37;31.97;;;;;;;2.58;92.60;99671.92;5231662;56;1137555;-76
2021/11/25 19:21:27;;;;;;;113.47;54.85;;;;;;;2.52;92.75;99668.81;5205831;56;1137007;-80
2021/11/25 19:26:33;;;;;;;84.47;35.33;;;;;;;2.47;92.91;99672.52;5146323;57;1139083;-80
2021/11/25 19:31:42;;;;;;;64.60;30.17;;;;;;;2.39;93.21;99656.94;5146340;57;1136928;-78
2021/11/25 19:36:46;;;;;;;71.87;33.40;;;;;;;2.33;93.36;99663.34;5145723;57;1137149;-81
2021/11/25 19:41:55;;;;;;;50.50;24.67;;;;;;;2.31;93.50;99660.44;5156185;57;1137119;-78
2021/11/25 19:47:01;;;;;;;56.73;28.47;;;;;;;2.25;93.65;99664.26;5165485;56;1137190;-80
2021/11/25 19:52:07;;;;;;;113.33;62.53;;;;;;;2.24;93.67;99673.02;5215002;56;1137031;-85
2021/11/25 19:57:12;;;;;;;83.70;25.70;;;;;;;2.19;94.03;99674.19;5112785;57;1139176;-84
2021/11/25 20:02:19;;;;;;;44.93;24.77;;;;;;;2.19;94.31;99673.73;5059348;58;1137001;-86
2021/11/25 20:07:27;;;;;;;55.97;28.40;;;;;;;2.22;94.38;99674.02;5120038;57;1136849;-85
2021/11/25 20:12:33;;;;;;;61.07;31.43;;;;;;;2.21;94.47;99676.25;5213742;56;1137118;-84
2021/11/25 20:17:39;;;;;;;74.37;38.50;;;;;;;2.24;94.31;99669.10;5131801;57;1136909;-84
2021/11/25 20:22:44;;;;;;;44.07;21.50;;;;;;;2.25;94.47;99659.05;5175195;56;1137215;-85
2021/11/25 20:27:50;;;;;;;57.07;29.10;;;;;;;2.26;94.49;99663.34;5125539;57;1137629;-83
2021/11/25 20:32:57;;;;;;;54.40;24.77;;;;;;;2.29;94.59;99664.94;5183156;56;1134841;-82
2021/11/25 20:38:04;;;;;;;41.63;18.97;;;;;;;2.29;94.57;99661.83;5131576;57;1134922;-76
2021/11/25 20:43:09;;;;;;;45.23;21.97;;;;;;;2.32;94.76;99656.44;5131685;57;1135108;-76
2021/11/25 20:48:16;;;;;;;43.50;22.53;;;;;;;2.32;94.66;99658.20;5168493;56;1134895;-80
2021/11/25 20:53:24;;;;;;;54.73;29.53;;;;;;;2.34;94.77;99666.33;5201329;56;1135116;-83
2021/11/25 20:58:30;;;;;;;46.88;24.32;;;;;;;2.37;94.92;99666.16;5165745;57;1135012;-80
2021/11/25 21:03:36;;;;;;;50.07;25.20;;;;;;;2.37;94.77;99647.89;5121767;56;1134844;-80
2021/11/25 21:08:42;;;;;;;76.57;46.60;;;;;;;2.40;94.87;99653.41;5191088;57;1135111;-79
2021/11/25 21:13:49;;;;;;;56.53;24.70;;;;;;;2.42;95.10;99657.61;5151052;57;1134934;-82
2021/11/25 21:18:55;;;;;;;57.40;24.17;;;;;;;2.44;95.09;99643.17;5066255;56;1135358;-78
2021/11/25 21:24:01;;;;;;;58.83;26.87;;;;;;;2.46;95.33;99645.20;5173153;56;1134997;-82
2021/11/25 21:29:08;;;;;;;40.17;22.07;;;;;;;2.47;95.61;99636.45;5215307;56;1135174;-77
2021/11/25 21:34:15;;;;;;;45.33;20.17;;;;;;;2.47;95.83;99646.88;5224988;55;1134721;-81
2021/11/25 21:39:23;;;;;;;53.43;23.97;;;;;;;2.45;96.13;99645.66;5151588;57;1134816;-79
2021/11/25 21:44:27;;;;;;;53.73;23.23;;;;;;;2.45;96.39;99621.34;5159758;56;1134871;-81
2021/11/25 21:49:33;;;;;;;48.13;27.07;;;;;;;2.45;96.60;99609.13;5162181;56;1134798;-79
2021/11/25 21:54:39;;;;;;;44.60;24.00;;;;;;;2.46;96.62;99604.29;5166030;57;1134898;-76
2021/11/25 21:59:47;;;;;;;56.73;27.83;;;;;;;2.48;96.93;99606.34;5143977;57;1132981;-77
2021/11/25 22:04:53;;;;;;;39.18;20.48;;;;;;;2.47;96.96;99600.75;5134003;57;1132788;-79
2021/11/25 22:09:59;;;;;;;48.53;24.57;;;;;;;2.46;97.27;99598.23;5111528;57;1136857;-78
2021/11/25 22:15:07;;;;;;;78.55;32.58;;;;;;;2.46;97.35;99591.70;5111096;57;1137190;-76
2021/11/25 22:20:16;;;;;;;44.97;24.37;;;;;;;2.47;97.44;99589.00;5115819;57;1137132;-75
2021/11/25 22:25:20;;;;;;;43.17;22.13;;;;;;;2.50;97.36;99581.93;5201249;56;1136952;-76
